createdAt,value
2024-02-22T00:00:14.233Z,52.34
2024-02-22T00:03:01.293Z,52.12
2024-02-22T00:05:28.281Z,52.11
2024-02-22T00:07:55.476Z,52.28
2024-02-22T00:10:22.567Z,52.25
2024-02-22T00:12:49.709Z,52.26
2024-02-22T00:15:16.593Z,52.42
2024-02-22T00:17:44.058Z,52.33
2024-02-22T00:20:11.651Z,52.13
2024-02-22T00:22:38.870Z,52.33
2024-02-22T00:25:06.339Z,52.03
2024-02-22T00:27:34.943Z,52.13
2024-02-22T00:30:01.906Z,52.19
2024-02-22T00:32:29.245Z,52.08
2024-02-22T00:34:56.199Z,52.08
2024-02-22T00:37:23.490Z,52.23
2024-02-22T00:39:50.389Z,51.93
2024-02-22T00:42:17.526Z,52.10
2024-02-22T00:44:44.380Z,52.00
2024-02-22T00:47:11.830Z,51.96
2024-02-22T00:49:38.986Z,51.98
2024-02-22T00:52:09.087Z,51.74
2024-02-22T00:54:36.271Z,51.72
2024-02-22T00:57:03.404Z,52.01
2024-02-22T00:59:33.523Z,52.01
2024-02-22T01:02:01.289Z,52.10
2024-02-22T01:04:28.471Z,51.93
2024-02-22T01:06:57.228Z,52.00
2024-02-22T01:09:24.085Z,51.75
2024-02-22T01:11:51.369Z,51.86
2024-02-22T01:14:20.999Z,51.51
2024-02-22T01:16:51.091Z,51.48
2024-02-22T01:19:18.557Z,51.66
2024-02-22T01:21:45.840Z,51.71
2024-02-22T01:24:12.740Z,51.68
2024-02-22T01:26:39.849Z,51.88
2024-02-22T01:29:06.715Z,51.99
2024-02-22T01:31:34.049Z,51.80
2024-02-22T01:34:01.066Z,51.76
2024-02-22T01:36:28.226Z,51.89
2024-02-22T01:38:55.037Z,51.72
2024-02-22T01:41:23.548Z,51.90
2024-02-22T01:43:51.487Z,51.87
2024-02-22T01:46:18.933Z,51.62
2024-02-22T01:48:45.928Z,51.45
2024-02-22T01:51:13.126Z,51.86
2024-02-22T01:53:39.985Z,51.77
2024-02-22T01:56:07.455Z,51.52
2024-02-22T01:58:36.141Z,51.58
2024-02-22T02:01:04.815Z,51.46
2024-02-22T02:03:31.845Z,51.50
2024-02-22T02:05:59.040Z,51.57
2024-02-22T02:08:25.886Z,51.33
2024-02-22T02:10:53.162Z,51.55
2024-02-22T02:13:19.981Z,51.60
2024-02-22T02:15:47.125Z,51.41
2024-02-22T02:18:14.130Z,51.38
2024-02-22T02:20:53.416Z,51.52
2024-02-22T02:23:28.696Z,51.51
2024-02-22T02:25:56.035Z,51.77
2024-02-22T02:28:22.925Z,51.45
2024-02-22T02:30:50.091Z,51.56
2024-02-22T02:33:17.080Z,51.14
2024-02-22T02:35:44.601Z,51.31
2024-02-22T02:38:11.870Z,51.46
2024-02-22T02:40:39.177Z,51.49
2024-02-22T02:43:06.615Z,51.54
2024-02-22T02:45:34.288Z,51.49
2024-02-22T02:48:01.199Z,51.48
2024-02-22T02:50:28.422Z,51.39
2024-02-22T02:52:55.294Z,51.31
2024-02-22T02:55:22.470Z,51.21
2024-02-22T02:57:51.124Z,51.38
2024-02-22T03:00:18.515Z,51.42
2024-02-22T03:02:45.305Z,51.47
2024-02-22T03:05:12.692Z,51.40
2024-02-22T03:07:39.693Z,51.48
2024-02-22T03:10:07.228Z,51.31
2024-02-22T03:12:34.283Z,51.29
2024-02-22T03:15:04.085Z,51.06
2024-02-22T03:17:30.902Z,50.99
2024-02-22T03:19:58.274Z,50.88
2024-02-22T03:22:25.267Z,51.21
2024-02-22T03:24:52.507Z,51.15
2024-02-22T03:27:19.374Z,51.00
2024-02-22T03:29:47.737Z,51.05
2024-02-22T03:32:15.474Z,51.08
2024-02-22T03:34:43.251Z,50.98
2024-02-22T03:37:10.857Z,50.95
2024-02-22T03:39:39.184Z,51.11
2024-02-22T03:42:06.019Z,51.12
2024-02-22T03:44:33.121Z,51.18
2024-02-22T03:46:59.932Z,51.34
2024-02-22T03:49:27.024Z,51.21
2024-02-22T03:51:53.930Z,51.17
2024-02-22T03:54:21.027Z,51.27
2024-02-22T03:56:47.861Z,51.29
2024-02-22T03:59:15.148Z,51.43
2024-02-22T04:01:42.152Z,51.28
2024-02-22T04:04:09.508Z,51.35
2024-02-22T04:06:39.810Z,51.41
2024-02-22T04:09:08.194Z,51.44
2024-02-22T04:11:35.216Z,51.65
2024-02-22T04:14:02.490Z,51.32
2024-02-22T04:16:29.348Z,51.25
2024-02-22T04:18:56.677Z,51.30
2024-02-22T04:21:23.624Z,51.39
2024-02-22T04:23:50.754Z,51.32
2024-02-22T04:26:17.644Z,51.18
2024-02-22T04:28:44.897Z,51.50
2024-02-22T04:31:12.026Z,51.21
2024-02-22T04:33:39.129Z,51.30
2024-02-22T04:36:07.251Z,51.46
2024-02-22T04:38:34.650Z,51.26
2024-02-22T04:41:01.677Z,51.21
2024-02-22T04:43:28.795Z,51.27
2024-02-22T04:45:56.275Z,51.34
2024-02-22T04:48:23.560Z,51.41
2024-02-22T04:50:50.438Z,51.24
2024-02-22T04:53:17.817Z,51.41
2024-02-22T04:55:44.716Z,51.25
2024-02-22T04:58:12.139Z,51.32
2024-02-22T05:00:40.207Z,51.39
2024-02-22T05:03:07.313Z,51.23
2024-02-22T05:05:34.318Z,51.13
2024-02-22T05:08:02.682Z,51.48
2024-02-22T05:10:31.211Z,51.32
2024-02-22T05:12:58.547Z,51.58
2024-02-22T05:15:25.317Z,51.33
2024-02-22T05:17:52.517Z,51.37
2024-02-22T05:20:19.402Z,51.44
2024-02-22T05:22:46.822Z,51.46
2024-02-22T05:25:13.657Z,51.34
2024-02-22T05:27:41.286Z,51.28
2024-02-22T05:30:08.741Z,51.24
2024-02-22T05:32:35.909Z,51.36
2024-02-22T05:35:02.865Z,51.37
2024-02-22T05:37:31.598Z,51.22
2024-02-22T05:40:00.154Z,51.23
2024-02-22T05:42:27.387Z,51.43
2024-02-22T05:44:54.243Z,51.35
2024-02-22T05:47:21.481Z,51.15
2024-02-22T05:49:49.232Z,51.30
2024-02-22T05:52:16.410Z,51.33
2024-02-22T05:54:43.205Z,51.21
2024-02-22T05:57:12.616Z,51.42
2024-02-22T05:59:40.379Z,51.45
2024-02-22T06:02:07.533Z,51.17
2024-02-22T06:04:34.530Z,51.16
2024-02-22T06:07:01.782Z,51.21
2024-02-22T06:09:28.649Z,51.20
2024-02-22T06:11:55.886Z,51.42
2024-02-22T06:14:22.847Z,51.31
2024-02-22T06:16:50.578Z,51.14
2024-02-22T06:19:17.533Z,51.42
2024-02-22T06:21:44.782Z,51.18
2024-02-22T06:24:11.619Z,51.33
2024-02-22T06:26:39.210Z,51.02
2024-02-22T06:29:06.186Z,51.14
2024-02-22T06:31:33.571Z,51.24
2024-02-22T06:34:01.781Z,51.05
2024-02-22T06:36:29.529Z,51.02
2024-02-22T06:38:56.396Z,51.04
2024-02-22T06:41:23.627Z,51.28
2024-02-22T06:43:50.449Z,51.28
2024-02-22T06:46:18.866Z,51.30
2024-02-22T06:48:46.772Z,51.25
2024-02-22T06:51:14.136Z,51.04
2024-02-22T06:53:41.167Z,51.03
2024-02-22T06:56:08.818Z,50.99
2024-02-22T06:58:36.262Z,51.25
2024-02-22T07:01:03.659Z,51.10
2024-02-22T07:03:30.562Z,51.27
2024-02-22T07:05:57.699Z,51.20
2024-02-22T07:08:24.968Z,51.18
2024-02-22T07:10:52.266Z,51.15
2024-02-22T07:13:19.201Z,51.11
2024-02-22T07:15:46.297Z,51.14
2024-02-22T07:18:13.260Z,51.02
2024-02-22T07:20:40.480Z,51.01
2024-02-22T07:23:07.397Z,50.82
2024-02-22T07:25:34.604Z,50.99
2024-02-22T07:28:01.481Z,50.93
2024-02-22T07:30:28.862Z,50.84
2024-02-22T07:32:55.930Z,50.99
2024-02-22T07:35:24.305Z,50.85
2024-02-22T07:37:51.226Z,51.01
2024-02-22T07:40:18.408Z,50.97
2024-02-22T07:42:45.273Z,50.87
2024-02-22T07:45:12.530Z,50.65
2024-02-22T07:47:40.553Z,50.63
2024-02-22T07:50:12.276Z,50.66
2024-02-22T07:52:40.906Z,50.52
2024-02-22T07:55:08.916Z,50.29
2024-02-22T07:57:36.706Z,50.57
2024-02-22T08:00:04.837Z,50.52
2024-02-22T08:02:31.780Z,50.24
2024-02-22T08:04:59.575Z,50.27
2024-02-22T08:07:26.555Z,50.30
2024-02-22T08:09:53.706Z,50.32
2024-02-22T08:12:20.687Z,50.14
2024-02-22T08:14:48.833Z,50.19
2024-02-22T08:17:18.972Z,50.04
2024-02-22T08:19:48.931Z,49.97
2024-02-22T08:22:17.066Z,50.02
2024-02-22T08:24:44.221Z,49.90
2024-02-22T08:27:11.611Z,50.12
2024-02-22T08:29:38.728Z,49.89
2024-02-22T08:32:07.016Z,50.04
2024-02-22T08:34:34.285Z,50.09
2024-02-22T08:37:01.295Z,50.13
2024-02-22T08:39:28.459Z,49.91
2024-02-22T08:41:55.240Z,49.89
2024-02-22T08:44:22.763Z,50.00
2024-02-22T08:46:49.676Z,49.80
2024-02-22T08:49:17.474Z,49.77
2024-02-22T08:51:44.329Z,50.03
2024-02-22T08:54:11.501Z,49.96
2024-02-22T08:56:38.369Z,49.75
2024-02-22T08:59:05.852Z,49.62
2024-02-22T09:01:35.492Z,50.01
2024-02-22T09:04:02.860Z,49.83
2024-02-22T09:06:29.823Z,49.62
2024-02-22T09:08:57.564Z,49.86
2024-02-22T09:11:25.431Z,49.74
2024-02-22T09:13:52.712Z,49.62
2024-02-22T09:16:19.758Z,49.50
2024-02-22T09:18:46.946Z,49.50
2024-02-22T09:21:15.471Z,49.67
2024-02-22T09:23:45.941Z,49.56
2024-02-22T09:26:14.740Z,49.60
2024-02-22T09:28:42.364Z,48.97
2024-02-22T09:31:09.190Z,49.32
2024-02-22T09:33:36.354Z,49.42
2024-02-22T09:36:03.746Z,49.05
2024-02-22T09:38:35.296Z,49.07
2024-02-22T09:41:02.816Z,49.17
2024-02-22T09:43:30.285Z,49.30
2024-02-22T09:45:57.103Z,49.44
2024-02-22T09:48:24.448Z,49.04
2024-02-22T09:50:51.429Z,48.87
2024-02-22T09:53:19.808Z,48.74
2024-02-22T09:55:46.897Z,48.90
2024-02-22T09:58:16.111Z,49.00
2024-02-22T10:00:43.080Z,49.12
2024-02-22T10:03:11.528Z,48.83
2024-02-22T10:05:39.134Z,48.86
2024-02-22T10:08:13.398Z,48.70
2024-02-22T10:10:41.741Z,49.07
2024-02-22T10:13:18.820Z,48.93
2024-02-22T10:15:46.732Z,48.85
2024-02-22T10:18:13.925Z,48.86
2024-02-22T10:20:44.052Z,48.65
2024-02-22T10:23:12.852Z,48.46
2024-02-22T10:25:41.016Z,48.70
2024-02-22T10:28:09.526Z,48.91
2024-02-22T10:30:36.543Z,48.22
2024-02-22T10:33:04.093Z,48.49
2024-02-22T10:35:31.685Z,48.39
2024-02-22T10:37:58.969Z,48.11
2024-02-22T10:40:27.453Z,48.32
2024-02-22T10:42:54.720Z,48.20
2024-02-22T10:45:22.752Z,48.50
2024-02-22T10:47:52.914Z,47.90
2024-02-22T10:50:23.265Z,47.66
2024-02-22T10:52:53.241Z,47.62
2024-02-22T10:55:20.123Z,47.37
2024-02-22T10:57:49.204Z,47.72
2024-02-22T11:00:16.607Z,47.81
2024-02-22T11:02:47.162Z,48.13
2024-02-22T11:05:14.309Z,47.74
2024-02-22T11:07:49.535Z,47.63
2024-02-22T11:10:16.380Z,47.69
2024-02-22T11:12:46.757Z,47.41
2024-02-22T11:15:15.468Z,47.73
2024-02-22T11:17:56.891Z,47.64
2024-02-22T11:20:36.279Z,47.30
2024-02-22T11:23:14.049Z,47.67
2024-02-22T11:25:41.198Z,47.57
2024-02-22T11:28:09.534Z,47.58
2024-02-22T11:30:36.326Z,47.57
2024-02-22T11:33:03.821Z,46.88
2024-02-22T11:35:30.934Z,47.54
2024-02-22T11:37:59.326Z,47.51
2024-02-22T11:40:27.631Z,47.45
2024-02-22T11:42:56.371Z,47.15
2024-02-22T11:45:23.263Z,47.17
2024-02-22T11:47:50.461Z,47.04
2024-02-22T11:50:17.661Z,46.71
2024-02-22T11:52:51.281Z,46.83
2024-02-22T11:55:18.320Z,46.61
2024-02-22T11:57:45.599Z,46.75
2024-02-22T12:00:12.640Z,46.94
2024-02-22T12:02:39.950Z,47.09
2024-02-22T12:05:08.177Z,47.03
2024-02-22T12:07:35.360Z,46.74
2024-02-22T12:10:02.225Z,46.62
2024-02-22T12:12:29.470Z,46.76
2024-02-22T12:15:00.018Z,46.31
2024-02-22T12:17:27.663Z,46.38
2024-02-22T12:19:55.695Z,46.06
2024-02-22T12:22:23.450Z,46.21
2024-02-22T12:24:50.634Z,46.01
2024-02-22T12:27:20.818Z,46.11
2024-02-22T12:29:51.380Z,45.94
2024-02-22T12:32:20.242Z,45.74
2024-02-22T12:34:47.178Z,45.58
2024-02-22T12:37:15.433Z,46.12
2024-02-22T12:39:42.406Z,45.92
2024-02-22T12:42:09.788Z,46.16
2024-02-22T12:44:36.658Z,46.32
2024-02-22T12:47:05.436Z,46.60
2024-02-22T12:49:34.249Z,46.28
2024-02-22T12:52:01.810Z,46.33
2024-02-22T12:54:28.818Z,46.11
2024-02-22T12:56:56.056Z,46.17
2024-02-22T12:59:23.154Z,46.31
2024-02-22T13:01:51.035Z,46.36
2024-02-22T13:04:18.144Z,46.38
2024-02-22T13:06:45.332Z,46.18
2024-02-22T13:09:12.705Z,46.57
2024-02-22T13:11:40.366Z,46.37
2024-02-22T13:14:07.627Z,46.84
2024-02-22T13:16:35.972Z,46.38
2024-02-22T13:19:03.174Z,46.14
2024-02-22T13:21:30.363Z,46.34
2024-02-22T13:23:57.265Z,46.42
2024-02-22T13:26:24.694Z,46.68
2024-02-22T13:28:52.046Z,46.58
2024-02-22T13:31:20.859Z,46.61
2024-02-22T13:33:49.378Z,46.62
2024-02-22T13:36:17.350Z,46.38
2024-02-22T13:38:44.338Z,46.44
2024-02-22T13:41:13.413Z,46.38
2024-02-22T13:43:41.840Z,46.32
2024-02-22T13:46:09.081Z,46.35
2024-02-22T13:48:37.839Z,46.19
2024-02-22T13:51:05.872Z,46.01
2024-02-22T13:53:32.954Z,45.76
2024-02-22T13:56:00.459Z,45.99
2024-02-22T13:58:27.446Z,46.03
2024-02-22T14:00:54.680Z,45.90
2024-02-22T14:03:21.659Z,45.83
2024-02-22T14:05:52.761Z,46.40
2024-02-22T14:08:22.007Z,46.12
2024-02-22T14:10:49.775Z,46.06
2024-02-22T14:13:18.099Z,45.79
2024-02-22T14:15:47.499Z,45.76
2024-02-22T14:18:14.377Z,45.74
2024-02-22T14:20:43.564Z,45.78
2024-02-22T14:23:13.857Z,45.65
2024-02-22T14:25:44.663Z,45.27
2024-02-22T14:28:11.552Z,45.27
2024-02-22T14:30:38.732Z,45.09
2024-02-22T14:33:05.993Z,45.29
2024-02-22T14:35:33.237Z,45.43
2024-02-22T14:38:00.313Z,45.28
2024-02-22T14:40:27.518Z,45.67
2024-02-22T14:42:54.435Z,45.49
2024-02-22T14:45:21.900Z,45.28
2024-02-22T14:47:48.784Z,45.44
2024-02-22T14:50:17.914Z,45.29
2024-02-22T14:52:44.823Z,45.38
2024-02-22T14:55:12.461Z,45.86
2024-02-22T14:57:39.360Z,45.69
2024-02-22T15:00:10.053Z,46.06
2024-02-22T15:02:37.511Z,45.85
2024-02-22T15:05:05.486Z,46.07
2024-02-22T15:07:32.485Z,46.24
2024-02-22T15:09:59.629Z,46.18
2024-02-22T15:12:26.465Z,46.14
2024-02-22T15:14:53.937Z,46.18
2024-02-22T15:17:24.000Z,46.25
2024-02-22T15:19:51.648Z,46.26
2024-02-22T15:22:18.906Z,46.53
2024-02-22T15:24:46.384Z,46.62
2024-02-22T15:27:13.294Z,46.34
2024-02-22T15:29:40.560Z,46.53
2024-02-22T15:32:07.815Z,46.58
2024-02-22T15:34:35.684Z,46.72
2024-02-22T15:37:03.224Z,46.87
2024-02-22T15:39:30.415Z,46.96
2024-02-22T15:41:57.261Z,47.08
2024-02-22T15:44:25.014Z,47.27
2024-02-22T15:46:52.054Z,47.35
2024-02-22T15:49:19.440Z,47.25
2024-02-22T15:51:46.377Z,47.11
2024-02-22T15:54:14.144Z,47.63
2024-02-22T15:56:41.227Z,47.83
2024-02-22T15:59:08.677Z,47.53
2024-02-22T16:01:35.611Z,47.57
2024-02-22T16:04:04.471Z,47.61
2024-02-22T16:06:32.632Z,47.69
2024-02-22T16:09:00.373Z,47.92
2024-02-22T16:11:27.791Z,47.99
2024-02-22T16:13:59.183Z,47.93
2024-02-22T16:16:26.396Z,48.34
2024-02-22T16:18:59.491Z,48.22
2024-02-22T16:21:26.628Z,48.57
2024-02-22T16:23:55.909Z,48.31
2024-02-22T16:26:23.322Z,48.34
2024-02-22T16:28:50.592Z,48.37
2024-02-22T16:31:17.619Z,48.62
2024-02-22T16:33:46.179Z,48.36
2024-02-22T16:36:13.842Z,48.74
2024-02-22T16:38:49.372Z,48.35
2024-02-22T16:41:28.056Z,48.73
2024-02-22T16:43:55.656Z,48.65
2024-02-22T16:46:22.741Z,48.69
2024-02-22T16:48:50.096Z,48.56
2024-02-22T16:51:19.764Z,48.60
2024-02-22T16:53:49.746Z,48.77
2024-02-22T16:56:17.366Z,48.86
2024-02-22T16:58:44.763Z,49.01
2024-02-22T17:01:11.846Z,48.87
2024-02-22T17:03:39.270Z,48.84
2024-02-22T17:06:06.394Z,48.86
2024-02-22T17:08:33.678Z,48.75
2024-02-22T17:11:00.933Z,48.65
2024-02-22T17:13:31.257Z,48.78
2024-02-22T17:15:59.391Z,48.62
2024-02-22T17:18:28.236Z,48.78
2024-02-22T17:20:56.499Z,48.96
2024-02-22T17:23:24.269Z,49.30
2024-02-22T17:25:51.513Z,48.96
2024-02-22T17:28:20.057Z,49.01
2024-02-22T17:30:47.043Z,49.04
2024-02-22T17:33:15.028Z,49.05
2024-02-22T17:35:42.014Z,49.13
2024-02-22T17:38:11.246Z,49.10
2024-02-22T17:40:38.364Z,49.32
2024-02-22T17:43:06.038Z,49.24
2024-02-22T17:45:32.939Z,49.29
2024-02-22T17:48:02.190Z,49.31
2024-02-22T17:50:29.382Z,49.30
2024-02-22T17:52:56.556Z,49.39
2024-02-22T17:55:24.541Z,49.47
2024-02-22T17:57:52.046Z,49.41
2024-02-22T18:00:25.390Z,49.40
2024-02-22T18:03:03.067Z,49.57
2024-02-22T18:05:32.401Z,49.44
2024-02-22T18:08:03.665Z,49.47
2024-02-22T18:10:31.062Z,49.78
2024-02-22T18:12:58.326Z,49.68
2024-02-22T18:15:31.251Z,49.48
2024-02-22T18:17:59.526Z,49.64
2024-02-22T18:20:32.138Z,49.68
2024-02-22T18:22:59.749Z,49.74
2024-02-22T18:25:27.239Z,49.80
2024-02-22T18:27:55.784Z,49.69
2024-02-22T18:30:23.773Z,49.84
2024-02-22T18:32:51.813Z,49.93
2024-02-22T18:35:18.819Z,49.98
2024-02-22T18:37:46.270Z,49.79
2024-02-22T18:40:13.407Z,50.08
2024-02-22T18:42:41.356Z,49.92
2024-02-22T18:45:08.615Z,50.08
2024-02-22T18:47:35.938Z,50.14
2024-02-22T18:50:04.996Z,49.87
2024-02-22T18:52:34.525Z,50.10
2024-02-22T18:55:02.180Z,50.19
2024-02-22T18:57:29.532Z,50.09
2024-02-22T18:59:56.397Z,50.14
2024-02-22T19:02:25.163Z,50.38
2024-02-22T19:04:52.034Z,50.26
2024-02-22T19:07:21.762Z,50.31
2024-02-22T19:09:49.348Z,50.02
2024-02-22T19:12:16.630Z,50.17
2024-02-22T19:14:43.530Z,50.19
2024-02-22T19:17:12.199Z,50.30
2024-02-22T19:19:40.145Z,50.46
2024-02-22T19:22:09.198Z,50.43
2024-02-22T19:24:36.138Z,50.51
2024-02-22T19:27:04.801Z,50.46
2024-02-22T19:29:32.010Z,50.74
2024-02-22T19:32:00.202Z,50.75
2024-02-22T19:34:28.096Z,50.67
2024-02-22T19:36:55.314Z,50.78
2024-02-22T19:39:22.698Z,50.77
2024-02-22T19:41:50.867Z,50.82
2024-02-22T19:44:19.927Z,50.65
2024-02-22T19:46:47.267Z,50.96
2024-02-22T19:49:14.329Z,50.71
2024-02-22T19:51:42.685Z,50.76
2024-02-22T19:54:21.003Z,50.83
2024-02-22T19:56:49.459Z,51.02
2024-02-22T19:59:16.300Z,51.12
2024-02-22T20:01:44.690Z,51.12
2024-02-22T20:04:11.905Z,51.15
2024-02-22T20:06:43.630Z,51.22
2024-02-22T20:09:10.942Z,51.62
2024-02-22T20:11:41.284Z,51.71
2024-02-22T20:14:09.096Z,51.76
2024-02-22T20:16:36.978Z,51.88
2024-02-22T20:19:03.959Z,51.82
2024-02-22T20:21:33.326Z,51.71
2024-02-22T20:24:02.908Z,51.98
2024-02-22T20:26:30.678Z,51.98
2024-02-22T20:28:57.626Z,51.64
2024-02-22T20:31:24.827Z,51.88
2024-02-22T20:33:52.447Z,51.92
2024-02-22T20:36:20.736Z,52.19
2024-02-22T20:38:47.777Z,52.17
2024-02-22T20:41:16.868Z,52.09
2024-02-22T20:43:44.010Z,52.37
2024-02-22T20:46:11.316Z,52.42
2024-02-22T20:48:42.258Z,52.32
2024-02-22T20:51:09.473Z,52.55
2024-02-22T20:53:37.973Z,52.12
2024-02-22T20:56:05.604Z,51.94
2024-02-22T20:58:32.661Z,52.21
2024-02-22T21:01:00.417Z,52.20
2024-02-22T21:03:29.017Z,52.33
2024-02-22T21:06:00.186Z,52.51
2024-02-22T21:08:27.954Z,52.25
2024-02-22T21:10:58.947Z,52.32
2024-02-22T21:13:25.924Z,52.33
2024-02-22T21:15:53.627Z,52.45
2024-02-22T21:18:20.724Z,52.45
2024-02-22T21:20:48.462Z,52.38
2024-02-22T21:23:15.377Z,52.05
2024-02-22T21:25:44.318Z,51.90
2024-02-22T21:28:11.945Z,52.22
2024-02-22T21:30:39.195Z,52.30
2024-02-22T21:33:06.293Z,52.24
2024-02-22T21:35:33.600Z,51.98
2024-02-22T21:38:05.805Z,51.66
2024-02-22T21:40:44.496Z,51.56
2024-02-22T21:43:11.382Z,51.84
2024-02-22T21:45:38.694Z,51.61
2024-02-22T21:48:10.728Z,51.72
2024-02-22T21:50:38.888Z,51.76
2024-02-22T21:53:08.224Z,51.79
2024-02-22T21:55:35.658Z,51.76
2024-02-22T21:58:02.500Z,51.67
2024-02-22T22:00:29.623Z,51.71
2024-02-22T22:02:56.507Z,51.67
2024-02-22T22:05:23.914Z,51.75
2024-02-22T22:07:51.448Z,51.78
2024-02-22T22:10:18.675Z,51.95
2024-02-22T22:12:45.532Z,51.74
2024-02-22T22:15:12.670Z,51.71
2024-02-22T22:17:42.415Z,51.75
2024-02-22T22:20:11.203Z,51.69
2024-02-22T22:22:38.017Z,51.53
2024-02-22T22:25:06.052Z,51.41
2024-02-22T22:27:32.906Z,51.53
2024-02-22T22:30:00.021Z,51.52
2024-02-22T22:32:27.044Z,51.37
2024-02-22T22:34:54.518Z,51.36
2024-02-22T22:37:22.892Z,51.55
2024-02-22T22:39:50.123Z,51.32
2024-02-22T22:42:16.970Z,51.53
2024-02-22T22:44:44.206Z,51.36
2024-02-22T22:47:11.262Z,51.03
2024-02-22T22:49:39.012Z,51.32
2024-02-22T22:52:06.116Z,51.25
2024-02-22T22:54:33.743Z,51.31
2024-02-22T22:57:00.688Z,51.51
2024-02-22T22:59:28.045Z,51.75
2024-02-22T23:01:58.565Z,51.60
2024-02-22T23:04:26.161Z,51.51
2024-02-22T23:06:53.406Z,51.35
2024-02-22T23:09:21.513Z,51.24
2024-02-22T23:11:48.434Z,51.57
2024-02-22T23:14:15.705Z,51.58
2024-02-22T23:16:42.785Z,51.34
2024-02-22T23:19:10.301Z,51.63
2024-02-22T23:21:37.681Z,51.74
2024-02-22T23:24:06.950Z,51.65
2024-02-22T23:26:33.978Z,51.84
2024-02-22T23:29:01.372Z,51.83
2024-02-22T23:31:31.074Z,51.49
2024-02-22T23:33:58.432Z,51.40
2024-02-22T23:36:25.481Z,51.52
2024-02-22T23:38:52.578Z,51.63
2024-02-22T23:41:25.501Z,52.01
2024-02-22T23:44:01.115Z,51.97
2024-02-22T23:46:28.570Z,52.03
2024-02-22T23:48:57.051Z,51.71
2024-02-22T23:51:24.117Z,51.74
2024-02-22T23:53:51.356Z,51.83
2024-02-22T23:56:18.252Z,51.62
2024-02-22T23:58:45.725Z,51.58
